sensor_id;sensor_type;location;lat;lon;timestamp;temperature;humidity
75961;SHT30;64644;48.914;2.254;2024-02-15T00:00:10;15.32;74.22
75961;SHT30;64644;48.914;2.254;2024-02-15T00:02:36;15.34;74.30
75961;SHT30;64644;48.914;2.254;2024-02-15T00:05:01;15.32;74.37
75961;SHT30;64644;48.914;2.254;2024-02-15T00:07:27;15.28;74.46
75961;SHT30;64644;48.914;2.254;2024-02-15T00:09:52;15.27;74.46
75961;SHT30;64644;48.914;2.254;2024-02-15T00:12:19;15.26;74.46
75961;SHT30;64644;48.914;2.254;2024-02-15T00:14:44;15.23;74.36
75961;SHT30;64644;48.914;2.254;2024-02-15T00:17:09;15.20;74.10
75961;SHT30;64644;48.914;2.254;2024-02-15T00:19:36;15.20;74.02
75961;SHT30;64644;48.914;2.254;2024-02-15T00:22:02;15.20;74.06
75961;SHT30;64644;48.914;2.254;2024-02-15T00:24:27;15.17;73.96
75961;SHT30;64644;48.914;2.254;2024-02-15T00:26:52;15.16;73.83
75961;SHT30;64644;48.914;2.254;2024-02-15T00:29:19;15.16;73.76
75961;SHT30;64644;48.914;2.254;2024-02-15T00:31:44;15.17;73.75
75961;SHT30;64644;48.914;2.254;2024-02-15T00:34:10;15.16;73.74
75961;SHT30;64644;48.914;2.254;2024-02-15T00:36:35;15.17;73.61
75961;SHT30;64644;48.914;2.254;2024-02-15T00:39:00;15.16;73.49
75961;SHT30;64644;48.914;2.254;2024-02-15T00:41:26;15.13;73.44
75961;SHT30;64644;48.914;2.254;2024-02-15T00:43:51;15.13;73.38
75961;SHT30;64644;48.914;2.254;2024-02-15T00:46:17;15.11;73.32
75961;SHT30;64644;48.914;2.254;2024-02-15T00:48:42;15.10;73.29
75961;SHT30;64644;48.914;2.254;2024-02-15T00:51:07;15.10;73.28
75961;SHT30;64644;48.914;2.254;2024-02-15T00:53:33;15.08;73.21
75961;SHT30;64644;48.914;2.254;2024-02-15T00:55:58;15.04;73.17
75961;SHT30;64644;48.914;2.254;2024-02-15T00:58:24;15.07;73.11
75961;SHT30;64644;48.914;2.254;2024-02-15T01:00:50;15.06;73.10
75961;SHT30;64644;48.914;2.254;2024-02-15T01:03:15;15.10;73.11
75961;SHT30;64644;48.914;2.254;2024-02-15T01:05:41;15.08;73.01
75961;SHT30;64644;48.914;2.254;2024-02-15T01:08:06;15.10;72.91
75961;SHT30;64644;48.914;2.254;2024-02-15T01:10:34;15.11;72.85
75961;SHT30;64644;48.914;2.254;2024-02-15T01:12:59;15.10;72.80
75961;SHT30;64644;48.914;2.254;2024-02-15T01:15:25;15.13;72.75
75961;SHT30;64644;48.914;2.254;2024-02-15T01:17:50;15.13;72.71
75961;SHT30;64644;48.914;2.254;2024-02-15T01:20:15;15.14;72.68
75961;SHT30;64644;48.914;2.254;2024-02-15T01:22:41;15.16;72.73
75961;SHT30;64644;48.914;2.254;2024-02-15T01:25:06;15.17;72.81
75961;SHT30;64644;48.914;2.254;2024-02-15T01:27:32;15.17;72.79
75961;SHT30;64644;48.914;2.254;2024-02-15T01:29:59;15.17;72.85
75961;SHT30;64644;48.914;2.254;2024-02-15T01:32:24;15.17;72.83
75961;SHT30;64644;48.914;2.254;2024-02-15T01:34:53;15.19;72.83
75961;SHT30;64644;48.914;2.254;2024-02-15T01:37:20;15.20;72.92
75961;SHT30;64644;48.914;2.254;2024-02-15T01:39:46;15.20;73.01
75961;SHT30;64644;48.914;2.254;2024-02-15T01:42:11;15.19;72.93
75961;SHT30;64644;48.914;2.254;2024-02-15T01:44:39;15.16;72.80
75961;SHT30;64644;48.914;2.254;2024-02-15T01:47:05;15.14;72.67
75961;SHT30;64644;48.914;2.254;2024-02-15T01:49:31;15.14;72.69
75961;SHT30;64644;48.914;2.254;2024-02-15T01:51:57;15.13;72.62
75961;SHT30;64644;48.914;2.254;2024-02-15T01:54:24;15.14;72.73
75961;SHT30;64644;48.914;2.254;2024-02-15T01:56:50;15.11;72.60
75961;SHT30;64644;48.914;2.254;2024-02-15T01:59:16;15.06;72.47
75961;SHT30;64644;48.914;2.254;2024-02-15T02:01:42;15.07;72.46
75961;SHT30;64644;48.914;2.254;2024-02-15T02:04:09;15.07;72.31
75961;SHT30;64644;48.914;2.254;2024-02-15T02:06:34;15.08;72.38
75961;SHT30;64644;48.914;2.254;2024-02-15T02:08:59;15.08;72.42
75961;SHT30;64644;48.914;2.254;2024-02-15T02:11:27;15.04;72.55
75961;SHT30;64644;48.914;2.254;2024-02-15T02:13:54;15.04;72.35
75961;SHT30;64644;48.914;2.254;2024-02-15T02:16:31;15.02;72.24
75961;SHT30;64644;48.914;2.254;2024-02-15T02:19:01;15.04;72.28
75961;SHT30;64644;48.914;2.254;2024-02-15T02:21:28;15.04;72.31
75961;SHT30;64644;48.914;2.254;2024-02-15T02:23:56;15.04;72.38
75961;SHT30;64644;48.914;2.254;2024-02-15T02:26:22;15.00;72.23
75961;SHT30;64644;48.914;2.254;2024-02-15T02:28:48;14.99;72.14
75961;SHT30;64644;48.914;2.254;2024-02-15T02:31:14;14.99;72.11
75961;SHT30;64644;48.914;2.254;2024-02-15T02:33:41;14.96;72.05
75961;SHT30;64644;48.914;2.254;2024-02-15T02:36:06;14.96;72.11
75961;SHT30;64644;48.914;2.254;2024-02-15T02:38:37;14.92;71.99
75961;SHT30;64644;48.914;2.254;2024-02-15T02:41:05;14.90;71.95
75961;SHT30;64644;48.914;2.254;2024-02-15T02:43:31;14.89;71.82
75961;SHT30;64644;48.914;2.254;2024-02-15T02:45:56;14.87;71.82
75961;SHT30;64644;48.914;2.254;2024-02-15T02:48:22;14.87;71.79
75961;SHT30;64644;48.914;2.254;2024-02-15T02:50:48;14.85;71.69
75961;SHT30;64644;48.914;2.254;2024-02-15T02:53:14;14.85;71.66
75961;SHT30;64644;48.914;2.254;2024-02-15T02:55:41;14.83;71.62
75961;SHT30;64644;48.914;2.254;2024-02-15T02:58:06;14.80;71.58
75961;SHT30;64644;48.914;2.254;2024-02-15T03:00:33;14.82;71.61
75961;SHT30;64644;48.914;2.254;2024-02-15T03:02:58;14.82;71.61
75961;SHT30;64644;48.914;2.254;2024-02-15T03:05:27;14.79;71.51
75961;SHT30;64644;48.914;2.254;2024-02-15T03:07:54;14.79;71.54
75961;SHT30;64644;48.914;2.254;2024-02-15T03:10:19;14.79;71.51
75961;SHT30;64644;48.914;2.254;2024-02-15T03:12:45;14.79;71.40
75961;SHT30;64644;48.914;2.254;2024-02-15T03:15:13;14.79;71.36
75961;SHT30;64644;48.914;2.254;2024-02-15T03:17:40;14.78;71.34
75961;SHT30;64644;48.914;2.254;2024-02-15T03:20:07;14.76;71.35
75961;SHT30;64644;48.914;2.254;2024-02-15T03:22:56;14.75;71.23
75961;SHT30;64644;48.914;2.254;2024-02-15T03:25:22;14.76;71.26
75961;SHT30;64644;48.914;2.254;2024-02-15T03:27:54;14.78;71.23
75961;SHT30;64644;48.914;2.254;2024-02-15T03:30:22;14.78;71.28
75961;SHT30;64644;48.914;2.254;2024-02-15T03:32:49;14.73;71.22
75961;SHT30;64644;48.914;2.254;2024-02-15T03:35:17;14.73;71.18
75961;SHT30;64644;48.914;2.254;2024-02-15T03:37:42;14.75;71.22
75961;SHT30;64644;48.914;2.254;2024-02-15T03:40:08;14.71;71.19
75961;SHT30;64644;48.914;2.254;2024-02-15T03:42:35;14.72;71.22
75961;SHT30;64644;48.914;2.254;2024-02-15T03:45:04;14.71;71.11
75961;SHT30;64644;48.914;2.254;2024-02-15T03:47:32;14.71;71.11
75961;SHT30;64644;48.914;2.254;2024-02-15T03:49:58;14.69;71.14
75961;SHT30;64644;48.914;2.254;2024-02-15T03:52:24;14.71;71.13
75961;SHT30;64644;48.914;2.254;2024-02-15T03:54:49;14.69;71.13
75961;SHT30;64644;48.914;2.254;2024-02-15T03:57:14;14.67;71.10
75961;SHT30;64644;48.914;2.254;2024-02-15T03:59:42;14.67;71.07
75961;SHT30;64644;48.914;2.254;2024-02-15T04:02:07;14.67;71.08
75961;SHT30;64644;48.914;2.254;2024-02-15T04:04:39;14.64;71.05
75961;SHT30;64644;48.914;2.254;2024-02-15T04:07:07;14.60;71.08
75961;SHT30;64644;48.914;2.254;2024-02-15T04:09:32;14.60;71.04
75961;SHT30;64644;48.914;2.254;2024-02-15T04:12:01;14.58;71.02
75961;SHT30;64644;48.914;2.254;2024-02-15T04:14:26;14.57;71.07
75961;SHT30;64644;48.914;2.254;2024-02-15T04:16:51;14.58;71.05
75961;SHT30;64644;48.914;2.254;2024-02-15T04:19:17;14.58;71.06
75961;SHT30;64644;48.914;2.254;2024-02-15T04:21:45;14.55;70.95
75961;SHT30;64644;48.914;2.254;2024-02-15T04:24:11;14.58;71.09
75961;SHT30;64644;48.914;2.254;2024-02-15T04:26:37;14.54;71.09
75961;SHT30;64644;48.914;2.254;2024-02-15T04:29:03;14.55;71.07
75961;SHT30;64644;48.914;2.254;2024-02-15T04:31:28;14.57;71.05
75961;SHT30;64644;48.914;2.254;2024-02-15T04:33:54;14.57;71.07
75961;SHT30;64644;48.914;2.254;2024-02-15T04:36:20;14.57;71.03
75961;SHT30;64644;48.914;2.254;2024-02-15T04:38:50;14.54;71.02
75961;SHT30;64644;48.914;2.254;2024-02-15T04:41:16;14.58;71.00
75961;SHT30;64644;48.914;2.254;2024-02-15T04:43:48;14.57;71.02
75961;SHT30;64644;48.914;2.254;2024-02-15T04:46:13;14.57;71.02
75961;SHT30;64644;48.914;2.254;2024-02-15T04:48:40;14.55;70.95
75961;SHT30;64644;48.914;2.254;2024-02-15T04:51:07;14.55;70.95
75961;SHT30;64644;48.914;2.254;2024-02-15T04:53:32;14.54;70.91
75961;SHT30;64644;48.914;2.254;2024-02-15T04:55:58;14.58;70.93
75961;SHT30;64644;48.914;2.254;2024-02-15T04:58:26;14.55;70.89
75961;SHT30;64644;48.914;2.254;2024-02-15T05:00:54;14.54;70.80
75961;SHT30;64644;48.914;2.254;2024-02-15T05:03:24;14.54;70.83
75961;SHT30;64644;48.914;2.254;2024-02-15T05:05:49;14.55;70.97
75961;SHT30;64644;48.914;2.254;2024-02-15T05:08:15;14.57;71.00
75961;SHT30;64644;48.914;2.254;2024-02-15T05:10:40;14.60;71.00
75961;SHT30;64644;48.914;2.254;2024-02-15T05:13:06;14.57;70.97
75961;SHT30;64644;48.914;2.254;2024-02-15T05:15:31;14.60;70.88
75961;SHT30;64644;48.914;2.254;2024-02-15T05:17:58;14.61;70.90
75961;SHT30;64644;48.914;2.254;2024-02-15T05:20:23;14.62;71.01
75961;SHT30;64644;48.914;2.254;2024-02-15T05:22:52;14.62;70.99
75961;SHT30;64644;48.914;2.254;2024-02-15T05:25:18;14.64;70.97
75961;SHT30;64644;48.914;2.254;2024-02-15T05:27:53;14.62;71.00
75961;SHT30;64644;48.914;2.254;2024-02-15T05:30:18;14.62;70.96
75961;SHT30;64644;48.914;2.254;2024-02-15T05:32:44;14.61;71.06
75961;SHT30;64644;48.914;2.254;2024-02-15T05:35:11;14.60;71.13
75961;SHT30;64644;48.914;2.254;2024-02-15T05:37:39;14.60;71.16
75961;SHT30;64644;48.914;2.254;2024-02-15T05:40:05;14.60;71.22
75961;SHT30;64644;48.914;2.254;2024-02-15T05:42:31;14.57;71.22
75961;SHT30;64644;48.914;2.254;2024-02-15T05:45:27;14.54;71.18
75961;SHT30;64644;48.914;2.254;2024-02-15T05:47:58;14.55;71.24
75961;SHT30;64644;48.914;2.254;2024-02-15T05:50:23;14.49;71.26
75961;SHT30;64644;48.914;2.254;2024-02-15T05:52:49;14.51;71.22
75961;SHT30;64644;48.914;2.254;2024-02-15T05:55:14;14.46;71.33
75961;SHT30;64644;48.914;2.254;2024-02-15T05:57:44;14.46;71.39
75961;SHT30;64644;48.914;2.254;2024-02-15T06:00:10;14.45;71.43
75961;SHT30;64644;48.914;2.254;2024-02-15T06:02:35;14.41;71.45
75961;SHT30;64644;48.914;2.254;2024-02-15T06:05:01;14.40;71.51
75961;SHT30;64644;48.914;2.254;2024-02-15T06:07:29;14.37;71.45
75961;SHT30;64644;48.914;2.254;2024-02-15T06:09:57;14.37;71.51
75961;SHT30;64644;48.914;2.254;2024-02-15T06:12:23;14.34;71.51
75961;SHT30;64644;48.914;2.254;2024-02-15T06:14:48;14.33;71.63
75961;SHT30;64644;48.914;2.254;2024-02-15T06:17:14;14.28;71.65
75961;SHT30;64644;48.914;2.254;2024-02-15T06:19:39;14.27;71.68
75961;SHT30;64644;48.914;2.254;2024-02-15T06:22:05;14.26;71.66
75961;SHT30;64644;48.914;2.254;2024-02-15T06:24:30;14.23;71.70
75961;SHT30;64644;48.914;2.254;2024-02-15T06:26:55;14.21;71.74
75961;SHT30;64644;48.914;2.254;2024-02-15T06:29:25;14.21;71.69
75961;SHT30;64644;48.914;2.254;2024-02-15T06:32:09;14.18;71.65
75961;SHT30;64644;48.914;2.254;2024-02-15T06:34:53;14.18;71.61
75961;SHT30;64644;48.914;2.254;2024-02-15T06:37:39;14.14;71.66
75961;SHT30;64644;48.914;2.254;2024-02-15T06:40:23;14.18;71.71
75961;SHT30;64644;48.914;2.254;2024-02-15T06:42:48;14.17;71.71
75961;SHT30;64644;48.914;2.254;2024-02-15T06:45:14;14.16;71.70
75961;SHT30;64644;48.914;2.254;2024-02-15T06:47:43;14.16;71.70
75961;SHT30;64644;48.914;2.254;2024-02-15T06:50:15;14.16;71.73
75961;SHT30;64644;48.914;2.254;2024-02-15T06:52:42;14.13;71.75
75961;SHT30;64644;48.914;2.254;2024-02-15T06:55:08;14.14;71.78
75961;SHT30;64644;48.914;2.254;2024-02-15T06:57:38;14.13;71.80
75961;SHT30;64644;48.914;2.254;2024-02-15T07:00:07;14.13;71.76
75961;SHT30;64644;48.914;2.254;2024-02-15T07:02:33;14.12;71.74
75961;SHT30;64644;48.914;2.254;2024-02-15T07:04:59;14.12;71.81
75961;SHT30;64644;48.914;2.254;2024-02-15T07:07:24;14.07;71.83
75961;SHT30;64644;48.914;2.254;2024-02-15T07:09:50;14.09;71.87
75961;SHT30;64644;48.914;2.254;2024-02-15T07:12:16;14.06;71.86
75961;SHT30;64644;48.914;2.254;2024-02-15T07:14:41;14.06;71.87
75961;SHT30;64644;48.914;2.254;2024-02-15T07:17:07;14.05;71.86
75961;SHT30;64644;48.914;2.254;2024-02-15T07:19:32;14.05;71.91
75961;SHT30;64644;48.914;2.254;2024-02-15T07:22:01;14.06;71.93
75961;SHT30;64644;48.914;2.254;2024-02-15T07:24:27;14.06;71.95
75961;SHT30;64644;48.914;2.254;2024-02-15T07:26:52;14.06;71.93
75961;SHT30;64644;48.914;2.254;2024-02-15T07:29:20;14.06;71.93
75961;SHT30;64644;48.914;2.254;2024-02-15T07:31:48;14.05;71.95
75961;SHT30;64644;48.914;2.254;2024-02-15T07:34:13;14.05;71.99
75961;SHT30;64644;48.914;2.254;2024-02-15T07:36:39;14.05;72.04
75961;SHT30;64644;48.914;2.254;2024-02-15T07:39:07;14.05;72.04
75961;SHT30;64644;48.914;2.254;2024-02-15T07:41:37;14.06;72.06
75961;SHT30;64644;48.914;2.254;2024-02-15T07:44:03;14.06;72.08
75961;SHT30;64644;48.914;2.254;2024-02-15T07:46:29;14.06;72.10
75961;SHT30;64644;48.914;2.254;2024-02-15T07:48:54;14.06;72.07
75961;SHT30;64644;48.914;2.254;2024-02-15T07:51:22;14.07;72.14
75961;SHT30;64644;48.914;2.254;2024-02-15T07:53:48;14.09;72.11
75961;SHT30;64644;48.914;2.254;2024-02-15T07:56:15;14.07;72.15
75961;SHT30;64644;48.914;2.254;2024-02-15T07:58:48;14.07;72.21
75961;SHT30;64644;48.914;2.254;2024-02-15T08:01:17;14.12;72.26
75961;SHT30;64644;48.914;2.254;2024-02-15T08:03:42;14.12;72.27
75961;SHT30;64644;48.914;2.254;2024-02-15T08:06:11;14.13;72.26
75961;SHT30;64644;48.914;2.254;2024-02-15T08:08:41;14.14;72.15
75961;SHT30;64644;48.914;2.254;2024-02-15T08:11:09;14.16;72.17
75961;SHT30;64644;48.914;2.254;2024-02-15T08:13:46;14.20;72.08
75961;SHT30;64644;48.914;2.254;2024-02-15T08:16:15;14.23;71.96
75961;SHT30;64644;48.914;2.254;2024-02-15T08:18:42;14.23;71.69
75961;SHT30;64644;48.914;2.254;2024-02-15T08:21:09;14.28;71.63
75961;SHT30;64644;48.914;2.254;2024-02-15T08:23:34;14.35;71.62
75961;SHT30;64644;48.914;2.254;2024-02-15T08:25:59;14.38;71.42
75961;SHT30;64644;48.914;2.254;2024-02-15T08:28:25;14.44;71.25
75961;SHT30;64644;48.914;2.254;2024-02-15T08:30:52;14.46;71.18
75961;SHT30;64644;48.914;2.254;2024-02-15T08:33:17;14.54;71.15
75961;SHT30;64644;48.914;2.254;2024-02-15T08:35:44;14.57;70.82
75961;SHT30;64644;48.914;2.254;2024-02-15T08:38:09;14.64;70.80
75961;SHT30;64644;48.914;2.254;2024-02-15T08:40:35;14.69;70.74
75961;SHT30;64644;48.914;2.254;2024-02-15T08:43:00;14.75;70.57
75961;SHT30;64644;48.914;2.254;2024-02-15T08:45:26;14.78;70.65
75961;SHT30;64644;48.914;2.254;2024-02-15T08:47:51;14.79;70.48
75961;SHT30;64644;48.914;2.254;2024-02-15T08:50:18;14.83;70.59
75961;SHT30;64644;48.914;2.254;2024-02-15T08:52:45;14.86;70.55
75961;SHT30;64644;48.914;2.254;2024-02-15T08:55:12;14.92;70.50
75961;SHT30;64644;48.914;2.254;2024-02-15T08:57:40;14.97;70.46
75961;SHT30;64644;48.914;2.254;2024-02-15T09:00:10;14.96;70.27
75961;SHT30;64644;48.914;2.254;2024-02-15T09:02:45;15.02;70.09
75961;SHT30;64644;48.914;2.254;2024-02-15T09:05:11;15.04;70.16
75961;SHT30;64644;48.914;2.254;2024-02-15T09:07:44;15.08;70.15
75961;SHT30;64644;48.914;2.254;2024-02-15T09:10:14;15.14;69.99
75961;SHT30;64644;48.914;2.254;2024-02-15T09:12:41;15.17;69.77
75961;SHT30;64644;48.914;2.254;2024-02-15T09:15:08;15.24;69.69
75961;SHT30;64644;48.914;2.254;2024-02-15T09:17:34;15.30;69.48
75961;SHT30;64644;48.914;2.254;2024-02-15T09:20:06;15.35;69.47
75961;SHT30;64644;48.914;2.254;2024-02-15T09:22:33;15.41;69.19
75961;SHT30;64644;48.914;2.254;2024-02-15T09:24:58;15.48;69.06
75961;SHT30;64644;48.914;2.254;2024-02-15T09:27:23;15.51;68.98
75961;SHT30;64644;48.914;2.254;2024-02-15T09:29:49;15.57;68.81
75961;SHT30;64644;48.914;2.254;2024-02-15T09:32:14;15.58;68.46
75961;SHT30;64644;48.914;2.254;2024-02-15T09:34:40;15.66;68.41
75961;SHT30;64644;48.914;2.254;2024-02-15T09:37:07;15.65;68.13
75961;SHT30;64644;48.914;2.254;2024-02-15T09:39:32;15.69;67.87
75961;SHT30;64644;48.914;2.254;2024-02-15T09:41:57;15.73;67.78
75961;SHT30;64644;48.914;2.254;2024-02-15T09:44:26;15.83;67.66
75961;SHT30;64644;48.914;2.254;2024-02-15T09:47:02;15.86;67.39
75961;SHT30;64644;48.914;2.254;2024-02-15T09:49:29;15.90;67.23
75961;SHT30;64644;48.914;2.254;2024-02-15T09:51:56;15.96;66.82
75961;SHT30;64644;48.914;2.254;2024-02-15T09:54:23;15.99;67.09
75961;SHT30;64644;48.914;2.254;2024-02-15T09:56:51;15.96;66.84
75961;SHT30;64644;48.914;2.254;2024-02-15T09:59:18;15.94;66.80
75961;SHT30;64644;48.914;2.254;2024-02-15T10:01:46;16.03;66.59
75961;SHT30;64644;48.914;2.254;2024-02-15T10:04:13;16.14;66.40
75961;SHT30;64644;48.914;2.254;2024-02-15T10:06:42;16.20;66.45
75961;SHT30;64644;48.914;2.254;2024-02-15T10:12:00;16.27;66.21
75961;SHT30;64644;48.914;2.254;2024-02-15T10:14:28;16.28;65.78
75961;SHT30;64644;48.914;2.254;2024-02-15T10:16:54;16.31;66.02
75961;SHT30;64644;48.914;2.254;2024-02-15T10:19:20;16.34;65.72
75961;SHT30;64644;48.914;2.254;2024-02-15T10:21:53;16.41;65.62
75961;SHT30;64644;48.914;2.254;2024-02-15T10:24:21;16.47;65.54
75961;SHT30;64644;48.914;2.254;2024-02-15T10:26:48;16.55;65.27
75961;SHT30;64644;48.914;2.254;2024-02-15T10:29:14;16.68;65.11
75961;SHT30;64644;48.914;2.254;2024-02-15T10:31:55;16.80;64.94
75961;SHT30;64644;48.914;2.254;2024-02-15T10:34:21;16.87;64.92
75961;SHT30;64644;48.914;2.254;2024-02-15T10:36:48;16.93;65.07
75961;SHT30;64644;48.914;2.254;2024-02-15T10:39:16;16.97;64.85
75961;SHT30;64644;48.914;2.254;2024-02-15T10:41:51;16.96;64.27
75961;SHT30;64644;48.914;2.254;2024-02-15T10:44:20;16.99;64.36
75961;SHT30;64644;48.914;2.254;2024-02-15T10:46:51;17.02;64.01
75961;SHT30;64644;48.914;2.254;2024-02-15T10:49:21;17.16;63.77
75961;SHT30;64644;48.914;2.254;2024-02-15T10:51:57;17.27;63.73
75961;SHT30;64644;48.914;2.254;2024-02-15T10:54:52;17.38;63.51
75961;SHT30;64644;48.914;2.254;2024-02-15T10:57:22;17.49;63.63
75961;SHT30;64644;48.914;2.254;2024-02-15T10:59:55;17.56;63.39
75961;SHT30;64644;48.914;2.254;2024-02-15T11:02:34;17.63;63.17
75961;SHT30;64644;48.914;2.254;2024-02-15T11:05:05;17.71;62.52
75961;SHT30;64644;48.914;2.254;2024-02-15T11:07:35;17.80;62.54
75961;SHT30;64644;48.914;2.254;2024-02-15T11:10:01;17.80;62.57
75961;SHT30;64644;48.914;2.254;2024-02-15T11:12:28;17.86;62.16
75961;SHT30;64644;48.914;2.254;2024-02-15T11:14:54;17.87;61.87
75961;SHT30;64644;48.914;2.254;2024-02-15T11:23:09;17.87;61.73
75961;SHT30;64644;48.914;2.254;2024-02-15T11:25:37;17.82;61.89
75961;SHT30;64644;48.914;2.254;2024-02-15T11:30:53;17.86;62.09
75961;SHT30;64644;48.914;2.254;2024-02-15T11:33:31;17.83;61.93
75961;SHT30;64644;48.914;2.254;2024-02-15T11:36:04;17.89;61.72
75961;SHT30;64644;48.914;2.254;2024-02-15T11:38:37;17.93;61.53
75961;SHT30;64644;48.914;2.254;2024-02-15T11:41:07;17.97;61.67
75961;SHT30;64644;48.914;2.254;2024-02-15T11:46:20;18.06;61.61
75961;SHT30;64644;48.914;2.254;2024-02-15T11:48:46;18.17;61.54
75961;SHT30;64644;48.914;2.254;2024-02-15T11:51:34;18.28;61.50
75961;SHT30;64644;48.914;2.254;2024-02-15T11:54:10;18.31;61.11
75961;SHT30;64644;48.914;2.254;2024-02-15T11:59:13;18.44;60.64
75961;SHT30;64644;48.914;2.254;2024-02-15T12:01:55;18.49;60.62
75961;SHT30;64644;48.914;2.254;2024-02-15T12:04:39;18.52;60.76
75961;SHT30;64644;48.914;2.254;2024-02-15T12:07:40;18.62;60.18
75961;SHT30;64644;48.914;2.254;2024-02-15T12:10:24;18.65;59.83
75961;SHT30;64644;48.914;2.254;2024-02-15T12:13:08;18.69;59.61
75961;SHT30;64644;48.914;2.254;2024-02-15T12:15:59;18.77;59.92
75961;SHT30;64644;48.914;2.254;2024-02-15T12:18:44;18.85;59.87
75961;SHT30;64644;48.914;2.254;2024-02-15T12:21:14;18.93;59.42
75961;SHT30;64644;48.914;2.254;2024-02-15T12:23:41;19.02;59.15
75961;SHT30;64644;48.914;2.254;2024-02-15T12:26:07;19.11;59.45
75961;SHT30;64644;48.914;2.254;2024-02-15T12:28:35;19.21;59.02
75961;SHT30;64644;48.914;2.254;2024-02-15T12:31:01;19.27;58.97
75961;SHT30;64644;48.914;2.254;2024-02-15T12:33:28;19.31;58.35
75961;SHT30;64644;48.914;2.254;2024-02-15T12:36:06;19.38;58.07
75961;SHT30;64644;48.914;2.254;2024-02-15T12:38:32;19.42;58.16
75961;SHT30;64644;48.914;2.254;2024-02-15T12:40:59;19.39;58.02
75961;SHT30;64644;48.914;2.254;2024-02-15T12:43:27;19.42;57.88
75961;SHT30;64644;48.914;2.254;2024-02-15T12:45:52;19.51;57.71
75961;SHT30;64644;48.914;2.254;2024-02-15T12:48:19;19.54;58.16
75961;SHT30;64644;48.914;2.254;2024-02-15T12:50:44;19.61;58.06
75961;SHT30;64644;48.914;2.254;2024-02-15T12:53:11;19.63;57.74
75961;SHT30;64644;48.914;2.254;2024-02-15T12:55:37;19.65;57.14
75961;SHT30;64644;48.914;2.254;2024-02-15T12:58:04;19.66;57.18
75961;SHT30;64644;48.914;2.254;2024-02-15T13:00:30;19.66;57.09
75961;SHT30;64644;48.914;2.254;2024-02-15T13:03:02;19.72;56.88
75961;SHT30;64644;48.914;2.254;2024-02-15T13:05:29;19.79;57.10
75961;SHT30;64644;48.914;2.254;2024-02-15T13:07:56;19.89;56.53
75961;SHT30;64644;48.914;2.254;2024-02-15T13:10:22;19.97;56.26
75961;SHT30;64644;48.914;2.254;2024-02-15T13:12:48;20.01;56.16
75961;SHT30;64644;48.914;2.254;2024-02-15T13:15:15;20.16;56.25
75961;SHT30;64644;48.914;2.254;2024-02-15T13:17:49;20.21;56.37
75961;SHT30;64644;48.914;2.254;2024-02-15T13:20:22;20.30;56.45
75961;SHT30;64644;48.914;2.254;2024-02-15T13:23:04;20.34;56.02
75961;SHT30;64644;48.914;2.254;2024-02-15T13:25:36;20.25;56.10
75961;SHT30;64644;48.914;2.254;2024-02-15T13:28:05;20.16;55.86
75961;SHT30;64644;48.914;2.254;2024-02-15T13:30:30;20.09;55.96
75961;SHT30;64644;48.914;2.254;2024-02-15T13:32:56;20.01;56.05
75961;SHT30;64644;48.914;2.254;2024-02-15T13:35:22;19.96;56.09
75961;SHT30;64644;48.914;2.254;2024-02-15T13:37:54;19.89;55.94
75961;SHT30;64644;48.914;2.254;2024-02-15T13:40:24;19.86;55.67
75961;SHT30;64644;48.914;2.254;2024-02-15T13:42:53;19.92;56.14
75961;SHT30;64644;48.914;2.254;2024-02-15T13:45:23;19.93;55.68
75961;SHT30;64644;48.914;2.254;2024-02-15T13:47:51;19.96;55.76
75961;SHT30;64644;48.914;2.254;2024-02-15T13:50:18;19.97;55.38
75961;SHT30;64644;48.914;2.254;2024-02-15T13:52:44;20.00;55.90
75961;SHT30;64644;48.914;2.254;2024-02-15T13:55:14;19.98;55.92
75961;SHT30;64644;48.914;2.254;2024-02-15T13:57:41;19.93;55.54
75961;SHT30;64644;48.914;2.254;2024-02-15T14:00:10;19.87;55.16
75961;SHT30;64644;48.914;2.254;2024-02-15T14:02:52;19.85;54.88
75961;SHT30;64644;48.914;2.254;2024-02-15T14:05:23;19.79;55.12
75961;SHT30;64644;48.914;2.254;2024-02-15T14:08:01;19.80;55.61
75961;SHT30;64644;48.914;2.254;2024-02-15T14:10:31;19.82;55.18
75961;SHT30;64644;48.914;2.254;2024-02-15T14:12:56;19.80;55.15
75961;SHT30;64644;48.914;2.254;2024-02-15T14:15:25;19.83;55.13
75961;SHT30;64644;48.914;2.254;2024-02-15T14:17:51;19.86;54.95
75961;SHT30;64644;48.914;2.254;2024-02-15T14:20:17;19.86;54.70
75961;SHT30;64644;48.914;2.254;2024-02-15T14:22:45;19.86;54.92
75961;SHT30;64644;48.914;2.254;2024-02-15T14:25:18;19.85;54.86
75961;SHT30;64644;48.914;2.254;2024-02-15T14:27:44;19.86;54.86
75961;SHT30;64644;48.914;2.254;2024-02-15T14:30:10;19.82;54.91
75961;SHT30;64644;48.914;2.254;2024-02-15T14:32:54;19.80;54.87
75961;SHT30;64644;48.914;2.254;2024-02-15T14:35:35;19.77;54.89
75961;SHT30;64644;48.914;2.254;2024-02-15T14:38:06;19.76;55.10
75961;SHT30;64644;48.914;2.254;2024-02-15T14:40:34;19.73;55.03
75961;SHT30;64644;48.914;2.254;2024-02-15T14:43:01;19.70;55.29
75961;SHT30;64644;48.914;2.254;2024-02-15T14:45:29;19.72;55.14
75961;SHT30;64644;48.914;2.254;2024-02-15T14:47:55;19.72;54.75
75961;SHT30;64644;48.914;2.254;2024-02-15T14:50:20;19.73;54.61
75961;SHT30;64644;48.914;2.254;2024-02-15T14:52:46;19.77;54.54
75961;SHT30;64644;48.914;2.254;2024-02-15T14:55:13;19.82;54.08
75961;SHT30;64644;48.914;2.254;2024-02-15T14:57:38;19.82;54.03
75961;SHT30;64644;48.914;2.254;2024-02-15T15:00:07;19.83;53.75
75961;SHT30;64644;48.914;2.254;2024-02-15T15:02:38;19.79;53.84
75961;SHT30;64644;48.914;2.254;2024-02-15T15:05:03;19.77;54.06
75961;SHT30;64644;48.914;2.254;2024-02-15T15:07:48;19.73;53.75
75961;SHT30;64644;48.914;2.254;2024-02-15T15:10:31;19.70;53.69
75961;SHT30;64644;48.914;2.254;2024-02-15T15:13:15;19.65;53.79
75961;SHT30;64644;48.914;2.254;2024-02-15T15:15:41;19.65;54.17
75961;SHT30;64644;48.914;2.254;2024-02-15T15:18:14;19.59;54.37
75961;SHT30;64644;48.914;2.254;2024-02-15T15:20:39;19.54;53.95
75961;SHT30;64644;48.914;2.254;2024-02-15T15:23:05;19.49;54.25
75961;SHT30;64644;48.914;2.254;2024-02-15T15:25:34;19.47;54.35
75961;SHT30;64644;48.914;2.254;2024-02-15T15:27:59;19.47;54.27
75961;SHT30;64644;48.914;2.254;2024-02-15T15:30:26;19.42;54.48
75961;SHT30;64644;48.914;2.254;2024-02-15T15:32:51;19.42;54.15
75961;SHT30;64644;48.914;2.254;2024-02-15T15:35:18;19.38;54.39
75961;SHT30;64644;48.914;2.254;2024-02-15T15:37:44;19.38;54.78
75961;SHT30;64644;48.914;2.254;2024-02-15T15:40:11;19.35;54.53
75961;SHT30;64644;48.914;2.254;2024-02-15T15:42:40;19.31;54.96
75961;SHT30;64644;48.914;2.254;2024-02-15T15:45:05;19.27;54.54
75961;SHT30;64644;48.914;2.254;2024-02-15T15:47:31;19.25;54.71
75961;SHT30;64644;48.914;2.254;2024-02-15T15:49:56;19.24;54.55
75961;SHT30;64644;48.914;2.254;2024-02-15T15:52:26;19.23;54.78